createdAt,value
2019-05-05T00:00:24.673Z,6.25
2019-05-05T00:02:17.498Z,7.01
2019-05-05T00:03:17.535Z,7.48
2019-05-05T00:05:10.534Z,7.48
2019-05-05T00:06:10.574Z,7.48
2019-05-05T00:08:04.875Z,7.76
2019-05-05T00:09:05.399Z,7.76
2019-05-05T00:10:56.985Z,8.05
2019-05-05T00:11:56.634Z,7.86
2019-05-05T00:13:49.646Z,7.67
2019-05-05T00:14:49.683Z,7.76
2019-05-05T00:16:44.477Z,8.05
2019-05-05T00:17:44.859Z,8.24
2019-05-05T00:19:36.201Z,7.95
2019-05-05T00:20:36.253Z,7.29
2019-05-05T00:22:29.247Z,5.87
2019-05-05T00:23:29.290Z,5.87
2019-05-05T00:25:22.258Z,6.92
2019-05-05T00:26:24.268Z,6.92
2019-05-05T00:28:15.300Z,7.10
2019-05-05T00:29:15.345Z,6.35
2019-05-05T00:31:08.318Z,6.44
2019-05-05T00:32:08.376Z,5.68
2019-05-05T00:34:01.365Z,5.96
2019-05-05T00:35:01.402Z,6.25
2019-05-05T00:36:55.277Z,5.49
2019-05-05T00:37:54.545Z,5.40
2019-05-05T00:39:47.439Z,6.44
2019-05-05T00:40:47.473Z,7.76
2019-05-05T00:42:40.438Z,8.05
2019-05-05T00:43:40.493Z,7.76
2019-05-05T00:45:34.468Z,8.15
2019-05-05T00:46:35.157Z,7.67
2019-05-05T00:48:26.511Z,6.82
2019-05-05T00:49:26.570Z,6.35
2019-05-05T00:51:19.565Z,6.44
2019-05-05T00:52:19.602Z,5.49
2019-05-05T00:54:14.732Z,3.78
2019-05-05T00:55:12.627Z,3.59
2019-05-05T00:57:05.604Z,4.83
2019-05-05T00:58:05.657Z,5.21
2019-05-05T00:59:58.657Z,5.21
2019-05-05T01:00:58.692Z,4.17
2019-05-05T01:02:51.667Z,2.65
2019-05-05T01:03:51.720Z,2.56
2019-05-05T01:05:44.894Z,3.41
2019-05-05T01:06:45.116Z,3.50
2019-05-05T01:08:37.743Z,3.22
2019-05-05T01:09:37.800Z,2.75
2019-05-05T01:11:30.796Z,2.56
2019-05-05T01:12:30.832Z,1.98
2019-05-05T01:14:24.979Z,0.85
2019-05-05T01:15:25.456Z,0.38
2019-05-05T01:17:16.841Z,1.04
2019-05-05T01:18:17.106Z,0.76
2019-05-05T01:20:10.410Z,1.32
2019-05-05T01:21:10.431Z,2.08
2019-05-05T01:23:04.440Z,2.65
2019-05-05T01:24:05.170Z,2.94
2019-05-05T01:25:56.465Z,2.84
2019-05-05T01:26:56.504Z,2.46
2019-05-05T01:28:49.481Z,1.70
2019-05-05T01:29:49.540Z,1.70
2019-05-05T01:31:42.533Z,0.95
2019-05-05T01:32:44.480Z,1.14
2019-05-05T01:34:35.542Z,0.57
2019-05-05T01:35:35.597Z,0.00
2019-05-05T01:37:28.585Z,0.00
2019-05-05T01:38:28.625Z,0.00
2019-05-05T01:40:21.613Z,0.00
2019-05-05T01:41:21.666Z,0.00
2019-05-05T01:43:14.731Z,0.28
2019-05-05T01:44:15.263Z,0.28
2019-05-05T01:46:07.687Z,0.00
2019-05-05T01:47:07.723Z,0.00
2019-05-05T01:49:00.697Z,0.09
2019-05-05T01:50:13.756Z,0.57
2019-05-05T01:51:55.314Z,0.66
2019-05-05T01:52:55.572Z,0.57
2019-05-05T01:54:46.760Z,0.66
2019-05-05T01:55:46.821Z,0.66
2019-05-05T01:57:39.801Z,0.19
2019-05-05T01:58:39.846Z,0.38
2019-05-05T02:00:34.692Z,1.14
2019-05-05T02:01:35.064Z,1.14
2019-05-05T02:03:25.877Z,1.04
2019-05-05T02:04:25.905Z,0.66
2019-05-05T02:06:18.881Z,0.00
2019-05-05T02:07:18.935Z,0.00
2019-05-05T02:09:11.975Z,0.00
2019-05-05T02:10:11.965Z,0.00
2019-05-05T02:12:05.264Z,0.00
2019-05-05T02:13:05.002Z,0.00
2019-05-05T02:14:58.001Z,0.00
2019-05-05T02:15:58.034Z,0.00
2019-05-05T02:17:51.009Z,0.00
2019-05-05T02:18:51.066Z,0.00
2019-05-05T02:20:45.112Z,0.00
2019-05-05T02:21:45.348Z,0.00
2019-05-05T02:23:37.065Z,0.00
2019-05-05T02:24:37.121Z,0.00
2019-05-05T02:26:30.112Z,0.00
2019-05-05T02:27:30.146Z,0.00
2019-05-05T02:29:24.731Z,0.00
2019-05-05T02:30:26.491Z,0.00
2019-05-05T02:32:16.273Z,0.00
2019-05-05T02:33:16.207Z,0.00
2019-05-05T02:35:09.190Z,0.00
2019-05-05T02:36:09.246Z,0.00
2019-05-05T02:38:02.237Z,0.00
2019-05-05T02:39:05.188Z,0.00
2019-05-05T02:40:55.278Z,0.00
2019-05-05T02:41:55.303Z,0.00
2019-05-05T02:43:48.283Z,0.00
2019-05-05T02:44:48.362Z,0.00
2019-05-05T02:46:41.335Z,0.00
2019-05-05T02:47:41.369Z,0.00
2019-05-05T02:49:35.170Z,0.00
2019-05-05T02:50:50.855Z,0.00
2019-05-05T02:52:27.398Z,0.00
2019-05-05T02:53:27.425Z,0.00
2019-05-05T02:55:20.400Z,0.00
2019-05-05T02:56:20.456Z,0.00
2019-05-05T02:58:14.032Z,0.00
2019-05-05T02:59:14.690Z,0.00
2019-05-05T03:01:06.467Z,0.00
2019-05-05T03:02:06.520Z,0.00
2019-05-05T03:03:59.517Z,0.00
2019-05-05T03:04:59.551Z,0.00
2019-05-05T03:06:54.188Z,0.00
2019-05-05T03:07:54.304Z,0.00
2019-05-05T03:09:45.587Z,0.00
2019-05-05T03:10:45.614Z,0.00
2019-05-05T03:12:38.612Z,0.00
2019-05-05T03:13:38.640Z,0.00
2019-05-05T03:15:33.546Z,0.00
2019-05-05T03:16:31.674Z,0.00
2019-05-05T03:18:24.790Z,0.00
2019-05-05T03:19:24.704Z,0.00
2019-05-05T03:21:17.688Z,0.00
2019-05-05T03:22:17.730Z,0.00
2019-05-05T03:24:10.723Z,0.00
2019-05-05T03:25:10.759Z,0.00
2019-05-05T03:27:03.929Z,0.00
2019-05-05T03:28:04.409Z,0.00
2019-05-05T03:29:56.790Z,0.00
2019-05-05T03:30:56.818Z,0.00
2019-05-05T03:32:49.819Z,0.00
2019-05-05T03:33:49.847Z,0.00
2019-05-05T03:35:43.650Z,0.00
2019-05-05T03:36:44.173Z,0.00
2019-05-05T03:38:35.907Z,0.00
2019-05-05T03:39:35.925Z,0.00
2019-05-05T03:41:28.922Z,0.00
2019-05-05T03:42:28.957Z,0.00
2019-05-05T03:44:24.050Z,0.00
2019-05-05T03:45:23.448Z,0.00
2019-05-05T03:47:14.983Z,0.00
2019-05-05T03:48:15.017Z,0.00
2019-05-05T03:50:07.993Z,0.00
2019-05-05T03:51:18.222Z,0.00
2019-05-05T03:53:01.042Z,0.00
2019-05-05T03:54:01.081Z,0.00
2019-05-05T03:55:54.572Z,0.00
2019-05-05T03:56:54.527Z,0.00
2019-05-05T03:58:47.089Z,0.00
2019-05-05T03:59:47.147Z,0.00
2019-05-05T04:01:40.146Z,0.00
2019-05-05T04:02:40.174Z,0.00
2019-05-05T04:04:33.593Z,0.00
2019-05-05T04:05:33.986Z,0.00
2019-05-05T04:07:26.199Z,0.00
2019-05-05T04:08:26.235Z,0.00
2019-05-05T04:10:19.207Z,0.00
2019-05-05T04:11:19.262Z,0.00
2019-05-05T04:13:13.927Z,0.00
2019-05-05T04:14:14.160Z,0.00
2019-05-05T04:16:05.267Z,0.00
2019-05-05T04:17:05.320Z,0.00
2019-05-05T04:18:58.307Z,0.00
2019-05-05T04:19:58.349Z,0.00
2019-05-05T04:21:51.344Z,0.00
2019-05-05T04:22:51.400Z,0.00
2019-05-05T04:24:44.368Z,0.00
2019-05-05T04:25:44.425Z,0.00
2019-05-05T04:27:37.419Z,0.00
2019-05-05T04:28:37.454Z,0.00
2019-05-05T04:30:30.457Z,0.00
2019-05-05T04:31:30.492Z,0.00
2019-05-05T04:33:23.703Z,0.00
2019-05-05T04:34:24.114Z,0.00
2019-05-05T04:36:16.513Z,0.00
2019-05-05T04:37:16.548Z,0.00
2019-05-05T04:39:09.521Z,0.00
2019-05-05T04:40:09.574Z,0.00
2019-05-05T04:42:04.555Z,0.00
2019-05-05T04:43:03.855Z,0.00
2019-05-05T04:44:55.578Z,0.00
2019-05-05T04:45:55.634Z,0.00
2019-05-05T04:47:48.629Z,0.00
2019-05-05T04:48:48.663Z,0.00
2019-05-05T04:50:43.942Z,0.00
2019-05-05T04:51:47.729Z,0.00
2019-05-05T04:53:34.826Z,0.00
2019-05-05T04:54:34.728Z,0.00
2019-05-05T04:56:29.950Z,0.00
2019-05-05T04:57:27.766Z,0.00
2019-05-05T04:59:20.766Z,0.00
2019-05-05T05:00:20.793Z,0.00
2019-05-05T05:02:14.401Z,0.00
2019-05-05T05:03:13.827Z,0.00
2019-05-05T05:05:06.819Z,0.00
2019-05-05T05:06:06.857Z,0.00
2019-05-05T05:07:59.851Z,0.00
2019-05-05T05:08:59.887Z,0.00
2019-05-05T05:10:54.279Z,0.00
2019-05-05T05:11:54.696Z,0.00
2019-05-05T05:13:45.913Z,0.00
2019-05-05T05:14:45.970Z,0.00
2019-05-05T05:16:38.956Z,0.00
2019-05-05T05:17:39.000Z,0.00
2019-05-05T05:19:33.528Z,0.00
2019-05-05T05:20:33.995Z,0.00
2019-05-05T05:22:25.547Z,0.00
2019-05-05T05:23:25.582Z,0.00
2019-05-05T05:25:18.574Z,0.00
2019-05-05T05:26:18.610Z,0.00
2019-05-05T05:28:11.607Z,0.00
2019-05-05T05:29:11.641Z,0.00
2019-05-05T05:31:04.653Z,0.00
2019-05-05T05:32:04.676Z,0.00
2019-05-05T05:33:57.667Z,0.00
2019-05-05T05:34:57.729Z,0.00
2019-05-05T05:36:50.717Z,0.00
2019-05-05T05:37:50.753Z,0.00
2019-05-05T05:39:44.099Z,0.00
2019-05-05T05:40:44.437Z,0.00
2019-05-05T05:42:36.800Z,0.00
2019-05-05T05:43:36.814Z,0.00
2019-05-05T05:45:29.790Z,0.00
2019-05-05T05:46:29.844Z,0.00
2019-05-05T05:48:23.701Z,0.00
2019-05-05T05:49:24.187Z,0.00
2019-05-05T05:51:15.845Z,0.00
2019-05-05T05:52:19.251Z,0.00
2019-05-05T05:54:08.908Z,0.00
2019-05-05T05:55:08.938Z,0.00
2019-05-05T05:57:01.912Z,0.00
2019-05-05T05:58:01.967Z,0.00
2019-05-05T05:59:54.971Z,0.00
2019-05-05T06:00:54.997Z,0.00
2019-05-05T06:02:48.009Z,0.00
2019-05-05T06:03:48.035Z,0.00
2019-05-05T06:05:41.026Z,0.00
2019-05-05T06:06:41.085Z,0.00
2019-05-05T06:08:34.648Z,0.00
2019-05-05T06:09:34.582Z,0.00
2019-05-05T06:11:27.096Z,0.00
2019-05-05T06:12:27.151Z,0.00
2019-05-05T06:14:20.146Z,0.00
2019-05-05T06:15:20.182Z,0.38
2019-05-05T06:17:13.594Z,0.19
2019-05-05T06:18:13.777Z,0.00
2019-05-05T06:20:06.724Z,1.23
2019-05-05T06:21:06.755Z,0.00
2019-05-05T06:22:59.743Z,0.00
2019-05-05T06:23:59.809Z,0.00
2019-05-05T06:25:54.843Z,0.00
2019-05-05T06:26:54.700Z,0.00
2019-05-05T06:28:45.826Z,0.00
2019-05-05T06:29:45.857Z,0.00
2019-05-05T06:31:38.837Z,0.00
2019-05-05T06:32:39.018Z,0.00
2019-05-05T06:34:33.698Z,0.00
2019-05-05T06:35:33.764Z,0.00
2019-05-05T06:37:24.903Z,0.00
2019-05-05T06:38:24.959Z,0.00
2019-05-05T06:40:17.974Z,1.70
2019-05-05T06:41:17.995Z,1.99
2019-05-05T06:43:10.970Z,3.13
2019-05-05T06:44:11.025Z,3.32
2019-05-05T06:46:04.133Z,1.61
2019-05-05T06:47:04.761Z,0.28
2019-05-05T06:48:57.035Z,0.95
2019-05-05T06:49:57.091Z,0.57
2019-05-05T06:51:50.100Z,3.23
2019-05-05T06:52:50.127Z,4.75
2019-05-05T06:54:43.813Z,5.32
2019-05-05T06:55:44.425Z,6.55
2019-05-05T06:57:36.165Z,6.65
2019-05-05T06:58:36.192Z,5.60
2019-05-05T07:00:29.175Z,8.83
2019-05-05T07:01:29.232Z,8.93
2019-05-05T07:03:24.199Z,9.12
2019-05-05T07:04:24.411Z,10.83
2019-05-05T07:06:15.248Z,12.63
2019-05-05T07:07:15.302Z,12.26
2019-05-05T07:09:08.304Z,10.07
2019-05-05T07:10:08.335Z,9.59
2019-05-05T07:12:01.314Z,9.40
2019-05-05T07:13:01.368Z,8.64
2019-05-05T07:14:54.361Z,9.22
2019-05-05T07:15:54.398Z,10.26
2019-05-05T07:17:47.372Z,9.97
2019-05-05T07:18:47.432Z,9.78
2019-05-05T07:20:40.433Z,7.12
2019-05-05T07:21:40.470Z,5.60
2019-05-05T07:23:34.250Z,9.31
2019-05-05T07:24:34.459Z,9.22
2019-05-05T07:26:26.498Z,10.93
2019-05-05T07:27:26.566Z,11.11
2019-05-05T07:29:19.561Z,13.11
2019-05-05T07:30:19.611Z,13.78
2019-05-05T07:32:14.170Z,17.68
2019-05-05T07:33:14.730Z,19.49
2019-05-05T07:35:05.630Z,20.82
2019-05-05T07:36:06.181Z,21.20
2019-05-05T07:37:58.640Z,21.48
2019-05-05T07:38:58.711Z,26.25
2019-05-05T07:40:51.706Z,27.01
2019-05-05T07:41:53.981Z,27.20
2019-05-05T07:43:44.719Z,31.79
2019-05-05T07:44:44.773Z,32.35
2019-05-05T07:46:37.781Z,33.69
2019-05-05T07:47:37.811Z,31.99
2019-05-05T07:49:30.826Z,39.04
2019-05-05T07:50:32.635Z,40.77
2019-05-05T07:52:23.918Z,48.87
2019-05-05T07:53:24.484Z,53.16
2019-05-05T07:55:16.902Z,58.91
2019-05-05T07:56:16.938Z,61.25
2019-05-05T07:58:09.914Z,51.82
2019-05-05T07:59:09.975Z,56.02
2019-05-05T08:01:04.655Z,55.73
2019-05-05T08:02:03.993Z,63.83
2019-05-05T08:03:57.544Z,56.43
2019-05-05T08:04:57.568Z,62.30
2019-05-05T08:06:50.559Z,61.73
2019-05-05T08:07:50.609Z,59.35
2019-05-05T08:09:44.467Z,64.81
2019-05-05T08:10:43.903Z,66.44
2019-05-05T08:12:36.637Z,73.43
2019-05-05T08:13:36.690Z,74.52
2019-05-05T08:15:29.711Z,75.85
2019-05-05T08:16:29.736Z,74.32
2019-05-05T08:18:24.303Z,76.94
2019-05-05T08:19:24.215Z,79.33
2019-05-05T08:21:15.795Z,79.38
2019-05-05T08:22:15.823Z,77.25
2019-05-05T08:24:08.807Z,76.04
2019-05-05T08:25:08.870Z,78.49
2019-05-05T08:27:04.365Z,77.76
2019-05-05T08:28:04.150Z,79.25
2019-05-05T08:29:54.927Z,69.62
2019-05-05T08:30:54.960Z,77.62
2019-05-05T08:32:47.941Z,78.58
2019-05-05T08:33:47.998Z,76.81
2019-05-05T08:35:41.079Z,80.81
2019-05-05T08:36:41.121Z,80.05
2019-05-05T08:38:34.718Z,80.01
2019-05-05T08:39:34.581Z,78.20
2019-05-05T08:41:27.202Z,80.68
2019-05-05T08:42:27.228Z,81.20
2019-05-05T08:44:20.208Z,75.66
2019-05-05T08:45:23.648Z,81.54
2019-05-05T08:47:13.930Z,83.01
2019-05-05T08:48:14.224Z,88.44
2019-05-05T08:50:06.319Z,90.24
2019-05-05T08:51:06.354Z,88.09
2019-05-05T08:52:59.369Z,88.24
2019-05-05T08:53:59.401Z,88.77
2019-05-05T08:55:54.510Z,88.25
2019-05-05T08:56:52.863Z,89.87
2019-05-05T08:58:45.481Z,82.40
2019-05-05T08:59:45.511Z,77.15
2019-05-05T09:01:38.502Z,67.22
2019-05-05T09:02:38.564Z,64.31
2019-05-05T09:04:33.879Z,58.51
2019-05-05T09:05:34.141Z,57.35
2019-05-05T09:07:25.122Z,53.98
2019-05-05T09:08:25.181Z,56.08
2019-05-05T09:10:18.216Z,61.53
2019-05-05T09:11:18.248Z,63.73
2019-05-05T09:13:11.245Z,61.40
2019-05-05T09:14:11.330Z,56.92
2019-05-05T09:16:04.330Z,59.80
2019-05-05T09:17:04.598Z,60.79
2019-05-05T09:18:57.356Z,60.86
2019-05-05T09:19:57.422Z,63.19
2019-05-05T09:21:50.442Z,68.84
2019-05-05T09:22:50.486Z,69.00
2019-05-05T09:24:44.519Z,69.57
2019-05-05T09:25:44.643Z,68.01
2019-05-05T09:27:36.575Z,72.14
2019-05-05T09:28:36.602Z,71.82
2019-05-05T09:30:29.592Z,77.95
2019-05-05T09:31:29.656Z,79.40
2019-05-05T09:33:24.636Z,85.17
2019-05-05T09:34:24.004Z,87.13
2019-05-05T09:36:15.697Z,88.93
2019-05-05T09:37:15.759Z,88.27
2019-05-05T09:39:08.771Z,88.84
2019-05-05T09:40:08.796Z,89.89
2019-05-05T09:42:03.954Z,90.36
2019-05-05T09:43:03.813Z,87.98
2019-05-05T09:44:54.856Z,88.75
2019-05-05T09:45:54.899Z,90.27
2019-05-05T09:47:47.896Z,90.94
2019-05-05T09:48:47.938Z,90.56
2019-05-05T09:50:40.948Z,90.56
2019-05-05T09:51:40.978Z,89.61
2019-05-05T09:53:34.472Z,87.07
2019-05-05T09:54:34.573Z,85.36
2019-05-05T09:56:27.002Z,83.78
2019-05-05T09:57:27.058Z,84.16
2019-05-05T09:59:20.058Z,82.64
2019-05-05T10:00:20.097Z,81.78
2019-05-05T10:02:13.111Z,81.02
2019-05-05T10:03:14.558Z,81.40
2019-05-05T10:05:06.118Z,79.49
2019-05-05T10:06:06.176Z,79.59
2019-05-05T10:07:59.191Z,81.63
2019-05-05T10:08:59.214Z,81.73
2019-05-05T10:10:52.206Z,82.01
2019-05-05T10:11:54.042Z,82.49
2019-05-05T10:13:45.327Z,83.29
2019-05-05T10:14:45.353Z,82.72
2019-05-05T10:16:38.337Z,82.15
2019-05-05T10:17:38.410Z,82.15
2019-05-05T10:19:31.421Z,82.34
2019-05-05T10:20:31.457Z,80.53
2019-05-05T10:22:24.442Z,78.56
2019-05-05T10:23:24.506Z,77.51
2019-05-05T10:25:17.519Z,75.60
2019-05-05T10:26:17.547Z,75.79
2019-05-05T10:28:10.541Z,76.27
2019-05-05T10:29:10.600Z,78.75
2019-05-05T10:31:04.645Z,78.47
2019-05-05T10:32:04.616Z,78.18
2019-05-05T10:33:56.626Z,78.75
2019-05-05T10:34:56.686Z,78.85
2019-05-05T10:36:49.695Z,77.32
2019-05-05T10:37:49.728Z,77.61
2019-05-05T10:39:43.987Z,77.17
2019-05-05T10:40:44.654Z,78.51
2019-05-05T10:42:35.783Z,76.50
2019-05-05T10:43:35.829Z,80.61
2019-05-05T10:45:28.821Z,81.71
2019-05-05T10:46:28.881Z,83.72
2019-05-05T10:48:23.570Z,85.87
2019-05-05T10:49:24.249Z,86.44
2019-05-05T10:51:14.910Z,86.39
2019-05-05T10:52:14.970Z,85.05
2019-05-05T10:54:07.970Z,85.82
2019-05-05T10:55:08.011Z,89.83
2019-05-05T10:57:01.004Z,89.88
2019-05-05T10:58:01.064Z,89.50
2019-05-05T10:59:54.088Z,89.93
2019-05-05T11:00:54.531Z,88.98
2019-05-05T11:02:47.110Z,90.69
2019-05-05T11:03:47.153Z,90.12
2019-05-05T11:05:40.165Z,88.21
2019-05-05T11:06:40.203Z,92.41
2019-05-05T11:08:34.745Z,90.31
2019-05-05T11:09:33.853Z,91.93
2019-05-05T11:11:26.258Z,90.69
2019-05-05T11:12:26.290Z,90.03
2019-05-05T11:14:19.278Z,90.55
2019-05-05T11:15:19.334Z,89.12
2019-05-05T11:17:14.296Z,89.69
2019-05-05T11:18:14.597Z,90.07
2019-05-05T11:20:05.378Z,90.17
2019-05-05T11:21:05.422Z,89.02
2019-05-05T11:22:58.431Z,88.26
2019-05-05T11:23:58.470Z,87.59
2019-05-05T11:25:51.464Z,89.73
2019-05-05T11:26:51.525Z,90.88
2019-05-05T11:28:44.701Z,87.49
2019-05-05T11:29:44.566Z,85.01
2019-05-05T11:31:37.556Z,85.21
2019-05-05T11:32:37.611Z,84.44
2019-05-05T11:34:30.623Z,80.09
2019-05-05T11:35:30.650Z,78.56
2019-05-05T11:37:23.633Z,79.23
2019-05-05T11:38:24.684Z,78.22
2019-05-05T11:40:16.718Z,74.30
2019-05-05T11:41:16.743Z,74.59
2019-05-05T11:43:09.728Z,74.11
2019-05-05T11:44:09.787Z,73.69
2019-05-05T11:46:02.803Z,77.26
2019-05-05T11:47:03.718Z,78.31
2019-05-05T11:48:55.816Z,80.09
2019-05-05T11:49:56.808Z,78.09
2019-05-05T11:51:48.903Z,78.91
2019-05-05T11:52:48.911Z,79.38
2019-05-05T11:54:43.535Z,80.62
2019-05-05T11:55:44.073Z,81.38
2019-05-05T11:57:34.968Z,82.34
2019-05-05T11:58:35.001Z,82.43
2019-05-05T12:00:27.982Z,82.24
2019-05-05T12:01:28.042Z,81.77
2019-05-05T12:03:21.057Z,83.43
2019-05-05T12:04:21.090Z,82.09
2019-05-05T12:06:14.846Z,82.29
2019-05-05T12:07:14.647Z,83.62
2019-05-05T12:09:07.143Z,84.14
2019-05-05T12:10:07.172Z,82.32
2019-05-05T12:12:00.169Z,80.13
2019-05-05T12:13:00.207Z,79.08
2019-05-05T12:14:53.914Z,78.70
2019-05-05T12:15:53.780Z,79.17
2019-05-05T12:17:46.245Z,77.11
2019-05-05T12:18:46.304Z,75.68
2019-05-05T12:20:39.315Z,81.70
2019-05-05T12:21:39.427Z,81.03
2019-05-05T12:23:34.059Z,76.45
2019-05-05T12:24:33.908Z,77.21
2019-05-05T12:26:25.394Z,76.16
2019-05-05T12:27:25.434Z,75.54
2019-05-05T12:29:18.438Z,77.84
2019-05-05T12:30:18.474Z,78.22
2019-05-05T12:32:12.933Z,76.88
2019-05-05T12:33:13.337Z,76.31
2019-05-05T12:35:04.535Z,75.83
2019-05-05T12:36:04.562Z,77.08
2019-05-05T12:37:57.551Z,76.92
2019-05-05T12:38:57.611Z,79.08
2019-05-05T12:40:50.631Z,80.13
2019-05-05T12:41:50.672Z,84.29
2019-05-05T12:43:44.265Z,90.07
2019-05-05T12:44:43.719Z,91.02
2019-05-05T12:46:36.698Z,91.50
2019-05-05T12:47:36.760Z,89.74
2019-05-05T12:49:29.775Z,90.03
2019-05-05T12:50:29.814Z,91.27
2019-05-05T12:52:22.788Z,90.50
2019-05-05T12:53:23.781Z,90.98
2019-05-05T12:55:15.860Z,92.22
2019-05-05T12:56:15.888Z,91.07
2019-05-05T12:58:08.876Z,91.31
2019-05-05T12:59:08.931Z,90.26
2019-05-05T13:01:03.745Z,90.02
2019-05-05T13:02:03.812Z,89.73
2019-05-05T13:03:54.955Z,87.73
2019-05-05T13:04:55.011Z,86.43
2019-05-05T13:06:48.012Z,83.95
2019-05-05T13:07:48.052Z,84.05
2019-05-05T13:09:41.053Z,79.08
2019-05-05T13:10:41.112Z,77.40
2019-05-05T13:12:34.436Z,77.30
2019-05-05T13:13:34.562Z,73.39
2019-05-05T13:15:27.163Z,72.14
2019-05-05T13:16:27.202Z,71.47
2019-05-05T13:18:20.232Z,72.62
2019-05-05T13:19:20.261Z,73.29
2019-05-05T13:21:13.243Z,72.33
2019-05-05T13:22:13.304Z,71.86
2019-05-05T13:24:06.323Z,71.09
2019-05-05T13:25:06.359Z,74.44
2019-05-05T13:26:59.377Z,80.46
2019-05-05T13:27:59.422Z,78.64
2019-05-05T13:29:53.675Z,78.64
2019-05-05T13:30:54.065Z,76.25
2019-05-05T13:32:45.477Z,73.96
2019-05-05T13:33:45.511Z,75.49
2019-05-05T13:35:38.524Z,78.83
2019-05-05T13:36:38.589Z,78.93
2019-05-05T13:38:31.541Z,77.69
2019-05-05T13:39:33.897Z,77.40
2019-05-05T13:41:24.611Z,74.34
2019-05-05T13:42:24.643Z,71.76
2019-05-05T13:44:17.638Z,67.36
2019-05-05T13:45:17.713Z,67.18
2019-05-05T13:47:10.704Z,66.13
2019-05-05T13:48:10.740Z,65.84
2019-05-05T13:50:03.787Z,65.11
2019-05-05T13:51:04.272Z,63.96
2019-05-05T13:52:56.798Z,63.86
2019-05-05T13:53:56.830Z,63.67
2019-05-05T13:55:49.813Z,63.35
2019-05-05T13:56:49.873Z,64.31
2019-05-05T13:58:43.711Z,66.03
2019-05-05T13:59:44.431Z,66.09
2019-05-05T14:01:35.926Z,68.00
2019-05-05T14:02:35.959Z,67.91
2019-05-05T14:04:30.451Z,64.18
2019-05-05T14:05:30.511Z,63.96
2019-05-05T14:07:23.993Z,65.04
2019-05-05T14:08:23.845Z,65.04
2019-05-05T14:10:16.536Z,64.94
2019-05-05T14:11:16.596Z,64.37
2019-05-05T14:13:10.592Z,65.14
2019-05-05T14:14:09.636Z,66.19
2019-05-05T14:16:03.909Z,67.18
2019-05-05T14:17:04.079Z,66.70
2019-05-05T14:18:55.690Z,64.88
2019-05-05T14:20:05.155Z,64.31
2019-05-05T14:21:48.714Z,63.83
2019-05-05T14:22:51.162Z,62.30
2019-05-05T14:24:41.785Z,61.06
2019-05-05T14:25:43.863Z,61.54
2019-05-05T14:27:34.813Z,61.72
2019-05-05T14:28:34.862Z,62.49
2019-05-05T14:30:27.876Z,60.96
2019-05-05T14:31:27.904Z,60.68
2019-05-05T14:33:20.897Z,64.18
2019-05-05T14:34:20.951Z,67.05
2019-05-05T14:36:13.966Z,67.87
2019-05-05T14:37:14.309Z,69.68
2019-05-05T14:39:06.980Z,69.68
2019-05-05T14:40:07.044Z,70.32
2019-05-05T14:42:00.039Z,70.89
2019-05-05T14:43:00.083Z,71.84
2019-05-05T14:44:54.553Z,72.03
2019-05-05T14:45:54.630Z,74.04
2019-05-05T14:47:46.116Z,75.85
2019-05-05T14:48:46.305Z,76.62
2019-05-05T14:50:39.177Z,73.79
2019-05-05T14:51:39.219Z,72.74
2019-05-05T14:53:34.681Z,71.18
2019-05-05T14:54:34.104Z,72.32
2019-05-05T14:56:35.737Z,73.85
2019-05-05T14:57:25.313Z,74.32
2019-05-05T14:59:18.338Z,73.75
2019-05-05T15:00:18.352Z,73.75
2019-05-05T15:02:11.362Z,74.04
2019-05-05T15:03:11.422Z,74.80
2019-05-05T15:05:04.437Z,75.57
2019-05-05T15:06:04.467Z,74.61
2019-05-05T15:07:57.443Z,75.95
2019-05-05T15:08:57.503Z,74.90
2019-05-05T15:10:50.511Z,72.13
2019-05-05T15:11:50.569Z,72.13
2019-05-05T15:13:43.766Z,72.03
2019-05-05T15:14:44.020Z,72.23
2019-05-05T15:16:36.572Z,71.84
2019-05-05T15:17:36.646Z,72.71
2019-05-05T15:19:29.647Z,72.89
2019-05-05T15:20:29.674Z,72.51
2019-05-05T15:22:23.941Z,70.89
2019-05-05T15:23:23.989Z,70.42
2019-05-05T15:25:15.737Z,70.51
2019-05-05T15:26:15.776Z,70.03
2019-05-05T15:28:08.824Z,70.70
2019-05-05T15:29:08.821Z,71.08
2019-05-05T15:31:01.806Z,70.83
2019-05-05T15:32:01.889Z,71.37
2019-05-05T15:33:54.890Z,72.74
2019-05-05T15:34:54.917Z,71.69
2019-05-05T15:36:47.965Z,70.45
2019-05-05T15:37:47.968Z,69.78
2019-05-05T15:39:40.961Z,69.21
2019-05-05T15:40:41.006Z,69.31
2019-05-05T15:42:34.024Z,69.02
2019-05-05T15:43:34.048Z,67.97
2019-05-05T15:45:27.033Z,66.53
2019-05-05T15:46:27.091Z,66.15
2019-05-05T15:48:20.095Z,67.30
2019-05-05T15:49:20.138Z,67.11
2019-05-05T15:51:14.485Z,66.63
2019-05-05T15:52:13.743Z,65.58
2019-05-05T15:54:06.159Z,65.30
2019-05-05T15:55:06.243Z,65.87
2019-05-05T15:57:05.666Z,64.85
2019-05-05T15:57:59.264Z,63.86
2019-05-05T15:59:54.147Z,63.76
2019-05-05T16:00:53.855Z,64.15
2019-05-05T16:02:45.313Z,63.70
2019-05-05T16:03:45.358Z,63.99
2019-05-05T16:05:38.375Z,63.89
2019-05-05T16:06:38.410Z,63.70
2019-05-05T16:08:31.387Z,63.67
2019-05-05T16:09:31.448Z,64.25
2019-05-05T16:11:26.787Z,63.86
2019-05-05T16:12:31.992Z,64.25
2019-05-05T16:14:17.476Z,62.34
2019-05-05T16:15:17.533Z,62.81
2019-05-05T16:17:10.548Z,63.29
2019-05-05T16:18:10.578Z,61.38
2019-05-05T16:20:04.559Z,58.97
2019-05-05T16:21:03.681Z,59.34
2019-05-05T16:22:56.667Z,60.30
2019-05-05T16:23:56.695Z,59.25
2019-05-05T16:25:49.686Z,58.20
2019-05-05T16:26:49.763Z,58.20
2019-05-05T16:28:44.603Z,59.92
2019-05-05T16:29:44.204Z,59.82
2019-05-05T16:31:35.775Z,59.25
2019-05-05T16:32:35.833Z,59.63
2019-05-05T16:34:28.857Z,60.11
2019-05-05T16:35:28.889Z,61.25
2019-05-05T16:37:23.541Z,62.88
2019-05-05T16:38:23.924Z,63.83
2019-05-05T16:40:15.029Z,64.78
2019-05-05T16:41:15.446Z,64.97
2019-05-05T16:43:08.013Z,64.94
2019-05-05T16:44:08.010Z,65.04
2019-05-05T16:46:01.043Z,66.09
2019-05-05T16:47:01.073Z,65.33
2019-05-05T16:48:54.211Z,64.37
2019-05-05T16:49:54.119Z,64.75
2019-05-05T16:51:47.119Z,65.04
2019-05-05T16:52:47.160Z,66.38
2019-05-05T16:54:40.179Z,66.85
2019-05-05T16:55:40.197Z,67.61
2019-05-05T16:57:34.753Z,68.15
2019-05-05T16:58:33.412Z,68.72
2019-05-05T17:00:26.259Z,69.68
2019-05-05T17:01:26.288Z,70.25
2019-05-05T17:03:19.280Z,71.30
2019-05-05T17:04:19.327Z,72.16
2019-05-05T17:06:13.988Z,73.49
2019-05-05T17:07:14.158Z,74.73
2019-05-05T17:09:06.989Z,74.54
2019-05-05T17:10:06.243Z,75.49
2019-05-05T17:11:58.394Z,75.68
2019-05-05T17:12:58.454Z,75.87
2019-05-05T17:14:51.444Z,76.73
2019-05-05T17:15:53.529Z,77.11
2019-05-05T17:17:44.631Z,77.30
2019-05-05T17:18:44.869Z,78.44
2019-05-05T17:20:37.541Z,78.54
2019-05-05T17:21:37.577Z,78.54
2019-05-05T17:23:30.590Z,79.49
2019-05-05T17:24:30.630Z,80.50
2019-05-05T17:26:24.296Z,80.98
2019-05-05T17:27:23.776Z,81.65
2019-05-05T17:29:16.682Z,80.22
2019-05-05T17:30:16.732Z,79.55
2019-05-05T17:32:09.730Z,76.03
2019-05-05T17:33:09.768Z,75.36
2019-05-05T17:35:03.789Z,73.93
2019-05-05T17:36:04.495Z,74.40
2019-05-05T17:37:55.833Z,73.74
2019-05-05T17:38:55.871Z,74.21
2019-05-05T17:40:48.890Z,73.74
2019-05-05T17:41:48.909Z,73.65
2019-05-05T17:43:41.991Z,74.50
2019-05-05T17:44:41.967Z,75.26
2019-05-05T17:46:34.967Z,76.21
2019-05-05T17:47:35.002Z,76.69
2019-05-05T17:49:27.983Z,77.55
2019-05-05T17:50:28.039Z,77.55
2019-05-05T17:52:21.080Z,78.31
2019-05-05T17:53:21.078Z,78.50
2019-05-05T17:55:14.060Z,78.12
2019-05-05T17:56:14.119Z,78.41
2019-05-05T17:58:07.123Z,79.36
2019-05-05T17:59:07.165Z,78.88
2019-05-05T18:01:00.144Z,80.22
2019-05-05T18:02:00.201Z,81.13
2019-05-05T18:03:54.475Z,79.99
2019-05-05T18:04:54.063Z,80.94
2019-05-05T18:06:46.248Z,82.08
2019-05-05T18:07:46.277Z,82.27
2019-05-05T18:09:39.259Z,83.51
2019-05-05T18:10:39.330Z,83.32
2019-05-05T18:12:33.754Z,83.80
2019-05-05T18:13:32.353Z,83.98
2019-05-05T18:15:25.377Z,83.13
2019-05-05T18:16:26.977Z,83.41
2019-05-05T18:18:18.399Z,84.36
2019-05-05T18:19:18.453Z,85.03
2019-05-05T18:21:11.457Z,84.94
2019-05-05T18:22:13.752Z,85.99
2019-05-05T18:24:04.473Z,86.08
2019-05-05T18:25:04.532Z,86.65
2019-05-05T18:26:57.538Z,86.94
2019-05-05T18:27:57.571Z,88.27
2019-05-05T18:29:50.563Z,89.32
2019-05-05T18:30:50.623Z,89.65
2019-05-05T18:32:43.635Z,90.46
2019-05-05T18:33:43.661Z,90.99
2019-05-05T18:35:36.643Z,91.13
2019-05-05T18:36:36.700Z,91.31
2019-05-05T18:38:29.710Z,91.75
2019-05-05T18:39:29.734Z,91.27
2019-05-05T18:41:23.678Z,91.17
2019-05-05T18:42:24.526Z,91.27
2019-05-05T18:44:15.803Z,90.51
2019-05-05T18:45:15.830Z,89.75
2019-05-05T18:47:11.680Z,89.47
2019-05-05T18:48:08.863Z,89.08